Terminal Aerodrome Forecast
Issued by NWS St Louis, MO

Home | Current Version | Previous Version | Text Only | Print | Product List | Glossary On
Versions: 1 2 3 4 5 6 7 8 9 10 11 12 13 14 15 16 17 18 19 20
046
FTUS43 KLSX 281726
TAFCOU
TAF
KCOU 281726Z 2818/2918 26012G18KT P6SM SCT025
      TEMPO 2818/2822 BKN025
     FM290000 31006KT P6SM BKN250
     FM291500 06007KT P6SM BKN150=

USA.gov is the U.S. government's official web portal to all federal, state and local government web resources and services.